F/V Anna Mamm Mari — FOHD — position and weather

sailwx.info

Track history (hours):
 
Tides and Currents Weather Stations Pressure Air Temp Water Temp Dewpoint Dewpoint Depression Visibility Wind Speed Wind Dir Waves Ship Positions

F/V Anna Mamm Mari

Last reported at 2018-Feb-20 19:58 UTC. Time now 2018-Feb-21 11:53 UTC.
Position N 46°26' W 002°19'.

Length 17 m.

Type: Fishing. MMSI: 228393000.

Date/timePositionNaut miles runAvg speedWind from/ knotsBaromVisibWave heightAir tempDewpointWater temp
2018-Feb-20 19:58N 46°26' W 002°19'4 8.2
2018-Feb-20 19:30N 46°27' W 002°13'4 8.2
2018-Feb-20 19:00N 46°27' W 002°07'4 8.6
2018-Feb-20 18:30N 46°27' W 002°01'4 8.8
2018-Feb-20 18:00N 46°28' W 001°55'4 8.5
2018-Feb-20 17:30N 46°28' W 001°48'2 3.7
2018-Feb-20 17:00N 46°30' W 001°47'0 0.3
2018-Feb-20 16:30N 46°30' W 001°47'0 0.2
2018-Feb-20 16:00N 46°30' W 001°47'0 0.0
2018-Feb-20 15:30N 46°30' W 001°47'0 0.0
2018-Feb-20 15:00N 46°30' W 001°47'0 0.0
2018-Feb-20 14:30N 46°30' W 001°47'0 0.0
2018-Feb-20 14:00N 46°30' W 001°47'0 0.0
2018-Feb-20 13:30N 46°30' W 001°47'0 0.0
2018-Feb-20 13:00N 46°30' W 001°47'0 0.0
2018-Feb-20 12:30N 46°30' W 001°47'0 0.0
2018-Feb-20 12:00N 46°30' W 001°47'0 0.0
2018-Feb-20 11:30N 46°30' W 001°47'0 0.0
2018-Feb-20 11:00N 46°30' W 001°47'0 0.0
2018-Feb-20 10:30N 46°30' W 001°47'0 0.0
2018-Feb-20 10:00N 46°30' W 001°47'3 5.3
2018-Feb-20 09:30N 46°28' W 001°50'4 8.0
2018-Feb-20 09:00N 46°28' W 001°56'  
2018-Feb-17 04:56N 46°21' W 002°16'2 4.4
2018-Feb-17 04:29N 46°22' W 002°13'4 7.6
2018-Feb-17 04:00N 46°23' W 002°08'4 8.1
2018-Feb-17 03:30N 46°25' W 002°03'4 8.2
2018-Feb-17 03:00N 46°26' W 001°57'4 8.1
2018-Feb-17 02:31N 46°27' W 001°52'4 7.3
2018-Feb-17 02:00N 46°29' W 001°47'1 1.3
2018-Feb-17 01:30N 46°30' W 001°47'0 0.3
2018-Feb-17 01:01N 46°30' W 001°47'0 0.0
2018-Feb-17 00:30N 46°30' W 001°47'1 2.5
2018-Feb-17 00:00N 46°29' W 001°47'2 4.2
2018-Feb-16 23:30N 46°28' W 001°50'3 6.8
2018-Feb-16 23:00N 46°27' W 001°55'4 7.4
2018-Feb-16 22:27N 46°26' W 002°00'15 0.3
2018-Feb-14 22:50N 46°11' W 001°59'3 7.5
2018-Feb-14 22:26N 46°14' W 001°57'3 7.5
2018-Feb-14 22:00N 46°17' W 001°55'4 7.5
2018-Feb-14 21:30N 46°20' W 001°53'4 7.6
2018-Feb-14 21:00N 46°24' W 001°50'4 7.6
2018-Feb-14 20:30N 46°27' W 001°48'3 5.8
2018-Feb-14 20:01N 46°30' W 001°47'0 0.0
2018-Feb-14 19:30N 46°30' W 001°47'0 0.0
2018-Feb-14 19:00N 46°30' W 001°47'0 0.0
2018-Feb-14 18:30N 46°30' W 001°47'0 0.0
2018-Feb-14 18:00N 46°30' W 001°47'0 0.0
2018-Feb-14 17:31N 46°30' W 001°47'0 0.0
2018-Feb-14 17:00N 46°30' W 001°47'0 0.0
2018-Feb-14 16:29N 46°30' W 001°47'0 0.0
2018-Feb-14 16:00N 46°30' W 001°47'0 0.0
2018-Feb-14 15:27N 46°30' W 001°47'0 0.0
2018-Feb-14 15:00N 46°30' W 001°47'0 0.0
2018-Feb-14 14:31N 46°30' W 001°47'0 0.1
2018-Feb-14 14:00N 46°30' W 001°47'0 0.0
2018-Feb-14 13:30N 46°30' W 001°47'0 0.4
2018-Feb-14 13:00N 46°30' W 001°47'1 2.9
2018-Feb-14 12:30N 46°28' W 001°47'5 9.2
2018-Feb-14 12:00N 46°24' W 001°50'5 9.5
2018-Feb-14 11:30N 46°20' W 001°52'7 0.2
2018-Feb-13 04:41N 46°14' W 001°46'1 6.9
2018-Feb-13 04:30N 46°15' W 001°46'3 7.0
2018-Feb-13 04:00N 46°18' W 001°46'3 6.9
2018-Feb-13 03:30N 46°22' W 001°47'3 7.0
2018-Feb-13 03:00N 46°25' W 001°47'4 7.3
2018-Feb-13 02:30N 46°29' W 001°47'1 1.9
2018-Feb-13 02:00N 46°30' W 001°47'0 0.0
2018-Feb-13 01:30N 46°30' W 001°47'0 0.0
2018-Feb-13 01:00N 46°30' W 001°47'0 0.0
2018-Feb-13 00:30N 46°30' W 001°47'0 0.0
2018-Feb-13 00:00N 46°30' W 001°47'0 0.0
2018-Feb-12 23:30N 46°30' W 001°47'0 0.0
2018-Feb-12 23:00N 46°30' W 001°47'0 0.0
2018-Feb-12 22:30N 46°30' W 001°47'0 0.0
2018-Feb-12 22:00N 46°30' W 001°47'0 0.0
2018-Feb-12 21:30N 46°30' W 001°47'0 0.0
2018-Feb-12 21:00N 46°30' W 001°47'0 0.0
2018-Feb-12 20:30N 46°30' W 001°47'0 0.0
2018-Feb-12 20:00N 46°30' W 001°47'0 0.0
2018-Feb-12 19:30N 46°30' W 001°47'0 0.1
2018-Feb-12 19:00N 46°30' W 001°47'0 0.0
2018-Feb-12 18:30N 46°30' W 001°47'0 0.0
2018-Feb-12 18:00N 46°30' W 001°47'0 0.0
2018-Feb-12 17:30N 46°30' W 001°47'0 0.0
2018-Feb-12 17:00N 46°30' W 001°47'0 0.1
2018-Feb-12 16:30N 46°30' W 001°47'0 0.0
2018-Feb-12 16:00N 46°30' W 001°47'0 0.0
2018-Feb-12 15:30N 46°30' W 001°47'0 0.0
2018-Feb-12 15:00N 46°30' W 001°47'3 6.6
2018-Feb-12 14:30N 46°27' W 001°48'28 3.6
2018-Feb-12 06:44N 45°59' W 001°46'1 0.1
2018-Feb-11 09:10N 45°59' W 001°45'1 0.2
2018-Feb-11 02:02N 45°59' W 001°43'0 1.9
2018-Feb-11 01:57N 45°59' W 001°43'0 0.1
2018-Feb-11 01:23N 45°59' W 001°43'0 0.0
2018-Feb-11 00:59N 45°59' W 001°43'0 0.0
2018-Feb-11 00:24N 45°59' W 001°43'0 0.0
2018-Feb-11 00:00N 45°59' W 001°43'0 0.0
2018-Feb-10 23:29N 45°59' W 001°43'0 0.0
2018-Feb-10 22:58N 45°59' W 001°43'0 0.0
2018-Feb-10 22:29N 45°59' W 001°43'0 0.0
2018-Feb-10 22:00N 45°59' W 001°43'0 0.0
2018-Feb-10 21:29N 45°59' W 001°43'0 0.0
2018-Feb-10 20:59N 45°59' W 001°43'0 0.0
2018-Feb-10 20:30N 45°59' W 001°43'  
Track history (hours):
 
Tides and Currents Weather Stations Pressure Air Temp Water Temp Dewpoint Dewpoint Depression Visibility Wind Speed Wind Dir Waves Ship Positions

F/V Anna Mamm Mari

Last reported at 2018-Feb-20 19:58 UTC. Time now 2018-Feb-21 11:53 UTC.
Position N 46°26' W 002°19'.

Length 17 m.

Type: Fishing. MMSI: 228393000.

Date/timePositionNaut miles runAvg speedWind from/ knotsBaromVisibWave heightAir tempDewpointWater temp
2018-Feb-20 19:58N 46°26' W 002°19'4 8.2
2018-Feb-20 19:30N 46°27' W 002°13'4 8.2
2018-Feb-20 19:00N 46°27' W 002°07'4 8.6
2018-Feb-20 18:30N 46°27' W 002°01'4 8.8
2018-Feb-20 18:00N 46°28' W 001°55'4 8.5
2018-Feb-20 17:30N 46°28' W 001°48'2 3.7
2018-Feb-20 17:00N 46°30' W 001°47'0 0.3
2018-Feb-20 16:30N 46°30' W 001°47'0 0.2
2018-Feb-20 16:00N 46°30' W 001°47'0 0.0
2018-Feb-20 15:30N 46°30' W 001°47'0 0.0
2018-Feb-20 15:00N 46°30' W 001°47'0 0.0
2018-Feb-20 14:30N 46°30' W 001°47'0 0.0
2018-Feb-20 14:00N 46°30' W 001°47'0 0.0
2018-Feb-20 13:30N 46°30' W 001°47'0 0.0
2018-Feb-20 13:00N 46°30' W 001°47'0 0.0
2018-Feb-20 12:30N 46°30' W 001°47'0 0.0
2018-Feb-20 12:00N 46°30' W 001°47'0 0.0
2018-Feb-20 11:30N 46°30' W 001°47'0 0.0
2018-Feb-20 11:00N 46°30' W 001°47'0 0.0
2018-Feb-20 10:30N 46°30' W 001°47'0 0.0
2018-Feb-20 10:00N 46°30' W 001°47'3 5.3
2018-Feb-20 09:30N 46°28' W 001°50'4 8.0
2018-Feb-20 09:00N 46°28' W 001°56'  
2018-Feb-17 04:56N 46°21' W 002°16'2 4.4
2018-Feb-17 04:29N 46°22' W 002°13'4 7.6
2018-Feb-17 04:00N 46°23' W 002°08'4 8.1
2018-Feb-17 03:30N 46°25' W 002°03'4 8.2
2018-Feb-17 03:00N 46°26' W 001°57'4 8.1
2018-Feb-17 02:31N 46°27' W 001°52'4 7.3
2018-Feb-17 02:00N 46°29' W 001°47'1 1.3
2018-Feb-17 01:30N 46°30' W 001°47'0 0.3
2018-Feb-17 01:01N 46°30' W 001°47'0 0.0
2018-Feb-17 00:30N 46°30' W 001°47'1 2.5
2018-Feb-17 00:00N 46°29' W 001°47'2 4.2
2018-Feb-16 23:30N 46°28' W 001°50'3 6.8
2018-Feb-16 23:00N 46°27' W 001°55'4 7.4
2018-Feb-16 22:27N 46°26' W 002°00'15 0.3
2018-Feb-14 22:50N 46°11' W 001°59'3 7.5
2018-Feb-14 22:26N 46°14' W 001°57'3 7.5
2018-Feb-14 22:00N 46°17' W 001°55'4 7.5
2018-Feb-14 21:30N 46°20' W 001°53'4 7.6
2018-Feb-14 21:00N 46°24' W 001°50'4 7.6
2018-Feb-14 20:30N 46°27' W 001°48'3 5.8
2018-Feb-14 20:01N 46°30' W 001°47'0 0.0
2018-Feb-14 19:30N 46°30' W 001°47'0 0.0
2018-Feb-14 19:00N 46°30' W 001°47'0 0.0
2018-Feb-14 18:30N 46°30' W 001°47'0 0.0
2018-Feb-14 18:00N 46°30' W 001°47'0 0.0
2018-Feb-14 17:31N 46°30' W 001°47'0 0.0
2018-Feb-14 17:00N 46°30' W 001°47'0 0.0
2018-Feb-14 16:29N 46°30' W 001°47'0 0.0
2018-Feb-14 16:00N 46°30' W 001°47'0 0.0
2018-Feb-14 15:27N 46°30' W 001°47'0 0.0
2018-Feb-14 15:00N 46°30' W 001°47'0 0.0
2018-Feb-14 14:31N 46°30' W 001°47'0 0.1
2018-Feb-14 14:00N 46°30' W 001°47'0 0.0
2018-Feb-14 13:30N 46°30' W 001°47'0 0.4
2018-Feb-14 13:00N 46°30' W 001°47'1 2.9
2018-Feb-14 12:30N 46°28' W 001°47'5 9.2
2018-Feb-14 12:00N 46°24' W 001°50'5 9.5
2018-Feb-14 11:30N 46°20' W 001°52'7 0.2
2018-Feb-13 04:41N 46°14' W 001°46'1 6.9
2018-Feb-13 04:30N 46°15' W 001°46'3 7.0
2018-Feb-13 04:00N 46°18' W 001°46'3 6.9
2018-Feb-13 03:30N 46°22' W 001°47'3 7.0
2018-Feb-13 03:00N 46°25' W 001°47'4 7.3
2018-Feb-13 02:30N 46°29' W 001°47'1 1.9
2018-Feb-13 02:00N 46°30' W 001°47'0 0.0
2018-Feb-13 01:30N 46°30' W 001°47'0 0.0
2018-Feb-13 01:00N 46°30' W 001°47'0 0.0
2018-Feb-13 00:30N 46°30' W 001°47'0 0.0
2018-Feb-13 00:00N 46°30' W 001°47'0 0.0
2018-Feb-12 23:30N 46°30' W 001°47'0 0.0
2018-Feb-12 23:00N 46°30' W 001°47'0 0.0
2018-Feb-12 22:30N 46°30' W 001°47'0 0.0
2018-Feb-12 22:00N 46°30' W 001°47'0 0.0
2018-Feb-12 21:30N 46°30' W 001°47'0 0.0
2018-Feb-12 21:00N 46°30' W 001°47'0 0.0
2018-Feb-12 20:30N 46°30' W 001°47'0 0.0
2018-Feb-12 20:00N 46°30' W 001°47'0 0.0
2018-Feb-12 19:30N 46°30' W 001°47'0 0.1
2018-Feb-12 19:00N 46°30' W 001°47'0 0.0
2018-Feb-12 18:30N 46°30' W 001°47'0 0.0
2018-Feb-12 18:00N 46°30' W 001°47'0 0.0
2018-Feb-12 17:30N 46°30' W 001°47'0 0.0
2018-Feb-12 17:00N 46°30' W 001°47'0 0.1
2018-Feb-12 16:30N 46°30' W 001°47'0 0.0
2018-Feb-12 16:00N 46°30' W 001°47'0 0.0
2018-Feb-12 15:30N 46°30' W 001°47'0 0.0
2018-Feb-12 15:00N 46°30' W 001°47'3 6.6
2018-Feb-12 14:30N 46°27' W 001°48'28 3.6
2018-Feb-12 06:44N 45°59' W 001°46'1 0.1
2018-Feb-11 09:10N 45°59' W 001°45'1 0.2
2018-Feb-11 02:02N 45°59' W 001°43'0 1.9
2018-Feb-11 01:57N 45°59' W 001°43'0 0.1
2018-Feb-11 01:23N 45°59' W 001°43'0 0.0
2018-Feb-11 00:59N 45°59' W 001°43'0 0.0
2018-Feb-11 00:24N 45°59' W 001°43'0 0.0
2018-Feb-11 00:00N 45°59' W 001°43'0 0.0
2018-Feb-10 23:29N 45°59' W 001°43'0 0.0
2018-Feb-10 22:58N 45°59' W 001°43'0 0.0
2018-Feb-10 22:29N 45°59' W 001°43'0 0.0
2018-Feb-10 22:00N 45°59' W 001°43'0 0.0
2018-Feb-10 21:29N 45°59' W 001°43'0 0.0
2018-Feb-10 20:59N 45°59' W 001°43'0 0.0
2018-Feb-10 20:30N 45°59' W 001°43'  

Dump ship's entire track history